sensor_id;sensor_type;location;lat;lon;timestamp;temperature;humidity
10459;DHT22;5277;48.722;8.736;2023-04-24T00:01:15;11.00;99.90
10459;DHT22;5277;48.722;8.736;2023-04-24T00:03:42;11.10;99.90
10459;DHT22;5277;48.722;8.736;2023-04-24T00:06:08;11.10;99.90
10459;DHT22;5277;48.722;8.736;2023-04-24T00:08:34;11.10;99.90
10459;DHT22;5277;48.722;8.736;2023-04-24T00:11:00;11.10;99.90
10459;DHT22;5277;48.722;8.736;2023-04-24T00:13:26;11.00;99.90
10459;DHT22;5277;48.722;8.736;2023-04-24T00:15:54;11.10;99.90
10459;DHT22;5277;48.722;8.736;2023-04-24T00:18:19;11.00;99.90
10459;DHT22;5277;48.722;8.736;2023-04-24T00:20:45;11.00;99.90
10459;DHT22;5277;48.722;8.736;2023-04-24T00:23:12;11.00;99.90
10459;DHT22;5277;48.722;8.736;2023-04-24T00:25:38;11.00;99.90
10459;DHT22;5277;48.722;8.736;2023-04-24T00:28:04;11.00;99.90
10459;DHT22;5277;48.722;8.736;2023-04-24T00:30:29;11.00;99.90
10459;DHT22;5277;48.722;8.736;2023-04-24T00:32:55;10.90;99.90
10459;DHT22;5277;48.722;8.736;2023-04-24T00:35:20;11.00;99.90
10459;DHT22;5277;48.722;8.736;2023-04-24T00:37:46;10.90;99.90
10459;DHT22;5277;48.722;8.736;2023-04-24T00:40:12;10.90;99.90
10459;DHT22;5277;48.722;8.736;2023-04-24T00:42:39;10.90;99.90
10459;DHT22;5277;48.722;8.736;2023-04-24T00:45:05;11.00;99.90
10459;DHT22;5277;48.722;8.736;2023-04-24T00:47:33;11.00;99.90
10459;DHT22;5277;48.722;8.736;2023-04-24T00:50:00;11.00;99.90
10459;DHT22;5277;48.722;8.736;2023-04-24T00:52:26;11.10;99.90
10459;DHT22;5277;48.722;8.736;2023-04-24T00:54:51;11.10;99.90
10459;DHT22;5277;48.722;8.736;2023-04-24T00:57:17;11.10;99.90
10459;DHT22;5277;48.722;8.736;2023-04-24T00:59:43;11.10;99.90
10459;DHT22;5277;48.722;8.736;2023-04-24T01:02:10;11.10;99.90
10459;DHT22;5277;48.722;8.736;2023-04-24T01:04:36;11.10;99.90
10459;DHT22;5277;48.722;8.736;2023-04-24T01:07:02;11.10;99.90
10459;DHT22;5277;48.722;8.736;2023-04-24T01:09:28;11.10;99.90
10459;DHT22;5277;48.722;8.736;2023-04-24T01:11:54;11.20;99.90
10459;DHT22;5277;48.722;8.736;2023-04-24T01:14:20;11.10;99.90
10459;DHT22;5277;48.722;8.736;2023-04-24T01:16:46;11.10;99.90
10459;DHT22;5277;48.722;8.736;2023-04-24T01:19:13;11.10;99.90
10459;DHT22;5277;48.722;8.736;2023-04-24T01:21:40;11.10;99.90
10459;DHT22;5277;48.722;8.736;2023-04-24T01:24:07;11.10;99.90
10459;DHT22;5277;48.722;8.736;2023-04-24T01:26:33;11.10;99.90
10459;DHT22;5277;48.722;8.736;2023-04-24T01:28:59;11.10;99.90
10459;DHT22;5277;48.722;8.736;2023-04-24T01:31:25;11.10;99.90
10459;DHT22;5277;48.722;8.736;2023-04-24T01:33:51;11.00;99.90
10459;DHT22;5277;48.722;8.736;2023-04-24T01:36:18;11.00;99.90
10459;DHT22;5277;48.722;8.736;2023-04-24T01:38:44;11.00;99.90
10459;DHT22;5277;48.722;8.736;2023-04-24T01:41:10;10.90;99.90
10459;DHT22;5277;48.722;8.736;2023-04-24T01:43:36;10.90;99.90
10459;DHT22;5277;48.722;8.736;2023-04-24T01:46:01;10.80;99.90
10459;DHT22;5277;48.722;8.736;2023-04-24T01:48:27;10.90;99.90
10459;DHT22;5277;48.722;8.736;2023-04-24T01:50:53;10.80;99.90
10459;DHT22;5277;48.722;8.736;2023-04-24T01:53:19;10.80;99.90
10459;DHT22;5277;48.722;8.736;2023-04-24T01:55:45;10.80;99.90
10459;DHT22;5277;48.722;8.736;2023-04-24T01:58:11;10.70;99.90
10459;DHT22;5277;48.722;8.736;2023-04-24T02:00:37;10.70;99.90
10459;DHT22;5277;48.722;8.736;2023-04-24T02:03:02;10.80;99.90
10459;DHT22;5277;48.722;8.736;2023-04-24T02:05:28;10.80;99.90
10459;DHT22;5277;48.722;8.736;2023-04-24T02:07:54;10.90;99.90
10459;DHT22;5277;48.722;8.736;2023-04-24T02:10:19;10.90;99.90
10459;DHT22;5277;48.722;8.736;2023-04-24T02:12:45;10.90;99.90
10459;DHT22;5277;48.722;8.736;2023-04-24T02:15:11;11.00;99.90
10459;DHT22;5277;48.722;8.736;2023-04-24T02:17:37;11.00;99.90
10459;DHT22;5277;48.722;8.736;2023-04-24T02:20:03;11.00;99.90
10459;DHT22;5277;48.722;8.736;2023-04-24T02:22:30;11.10;99.90
10459;DHT22;5277;48.722;8.736;2023-04-24T02:24:55;11.20;99.90
10459;DHT22;5277;48.722;8.736;2023-04-24T02:27:21;11.20;99.90
10459;DHT22;5277;48.722;8.736;2023-04-24T02:29:47;11.30;99.90
10459;DHT22;5277;48.722;8.736;2023-04-24T02:32:12;11.20;99.90
10459;DHT22;5277;48.722;8.736;2023-04-24T02:34:40;11.20;99.90
10459;DHT22;5277;48.722;8.736;2023-04-24T02:37:06;11.30;99.90
10459;DHT22;5277;48.722;8.736;2023-04-24T02:39:31;11.20;99.90
10459;DHT22;5277;48.722;8.736;2023-04-24T02:41:57;11.30;99.90
10459;DHT22;5277;48.722;8.736;2023-04-24T02:44:23;11.30;99.90
10459;DHT22;5277;48.722;8.736;2023-04-24T02:46:49;11.30;99.90
10459;DHT22;5277;48.722;8.736;2023-04-24T02:49:14;11.30;99.90
10459;DHT22;5277;48.722;8.736;2023-04-24T02:51:40;11.40;99.90
10459;DHT22;5277;48.722;8.736;2023-04-24T02:54:07;11.30;99.90
10459;DHT22;5277;48.722;8.736;2023-04-24T02:56:34;11.30;99.90
10459;DHT22;5277;48.722;8.736;2023-04-24T02:58:59;11.20;99.90
10459;DHT22;5277;48.722;8.736;2023-04-24T03:01:25;11.10;99.90
10459;DHT22;5277;48.722;8.736;2023-04-24T03:03:51;11.00;99.90
10459;DHT22;5277;48.722;8.736;2023-04-24T03:06:16;10.90;99.90
10459;DHT22;5277;48.722;8.736;2023-04-24T03:08:42;10.90;99.90
10459;DHT22;5277;48.722;8.736;2023-04-24T03:11:07;10.90;99.90
10459;DHT22;5277;48.722;8.736;2023-04-24T03:13:33;10.90;99.90
10459;DHT22;5277;48.722;8.736;2023-04-24T03:15:59;10.90;99.90
10459;DHT22;5277;48.722;8.736;2023-04-24T03:18:24;11.00;99.90
10459;DHT22;5277;48.722;8.736;2023-04-24T03:20:50;11.00;99.90
10459;DHT22;5277;48.722;8.736;2023-04-24T03:23:16;11.00;99.90
10459;DHT22;5277;48.722;8.736;2023-04-24T03:25:42;10.90;99.90
10459;DHT22;5277;48.722;8.736;2023-04-24T03:28:08;10.90;99.90
10459;DHT22;5277;48.722;8.736;2023-04-24T03:30:34;10.70;99.90
10459;DHT22;5277;48.722;8.736;2023-04-24T03:33:00;10.70;99.90
10459;DHT22;5277;48.722;8.736;2023-04-24T03:35:25;10.70;99.90
10459;DHT22;5277;48.722;8.736;2023-04-24T03:37:51;10.70;99.90
10459;DHT22;5277;48.722;8.736;2023-04-24T03:40:17;10.70;99.90
10459;DHT22;5277;48.722;8.736;2023-04-24T03:42:42;10.70;99.90
10459;DHT22;5277;48.722;8.736;2023-04-24T03:45:09;10.70;99.90
10459;DHT22;5277;48.722;8.736;2023-04-24T03:47:34;10.70;99.90
10459;DHT22;5277;48.722;8.736;2023-04-24T03:50:00;10.70;99.90
10459;DHT22;5277;48.722;8.736;2023-04-24T03:52:26;10.50;99.90
10459;DHT22;5277;48.722;8.736;2023-04-24T03:54:51;10.50;99.90
10459;DHT22;5277;48.722;8.736;2023-04-24T03:57:17;10.60;99.90
10459;DHT22;5277;48.722;8.736;2023-04-24T03:59:43;10.50;99.90
10459;DHT22;5277;48.722;8.736;2023-04-24T04:02:08;10.60;99.90
10459;DHT22;5277;48.722;8.736;2023-04-24T04:04:34;10.40;99.90
10459;DHT22;5277;48.722;8.736;2023-04-24T04:06:59;10.40;99.90
10459;DHT22;5277;48.722;8.736;2023-04-24T04:09:28;10.30;99.90
10459;DHT22;5277;48.722;8.736;2023-04-24T04:11:54;10.10;99.90
10459;DHT22;5277;48.722;8.736;2023-04-24T04:14:21;10.20;99.90
10459;DHT22;5277;48.722;8.736;2023-04-24T04:16:58;10.10;99.90
10459;DHT22;5277;48.722;8.736;2023-04-24T04:19:24;10.10;99.90
10459;DHT22;5277;48.722;8.736;2023-04-24T04:21:49;10.10;99.90
10459;DHT22;5277;48.722;8.736;2023-04-24T04:24:19;10.20;99.90
10459;DHT22;5277;48.722;8.736;2023-04-24T04:26:46;10.20;99.90
10459;DHT22;5277;48.722;8.736;2023-04-24T04:29:13;10.30;99.90
10459;DHT22;5277;48.722;8.736;2023-04-24T04:31:38;10.20;99.90
10459;DHT22;5277;48.722;8.736;2023-04-24T04:34:04;10.40;99.90
10459;DHT22;5277;48.722;8.736;2023-04-24T04:36:30;10.40;99.90
10459;DHT22;5277;48.722;8.736;2023-04-24T04:38:55;10.40;99.90
10459;DHT22;5277;48.722;8.736;2023-04-24T04:41:22;10.40;99.90
10459;DHT22;5277;48.722;8.736;2023-04-24T04:43:47;10.30;99.90
10459;DHT22;5277;48.722;8.736;2023-04-24T04:46:13;10.30;99.90
10459;DHT22;5277;48.722;8.736;2023-04-24T04:48:39;10.20;99.90
10459;DHT22;5277;48.722;8.736;2023-04-24T04:51:05;10.10;99.90
10459;DHT22;5277;48.722;8.736;2023-04-24T04:53:31;10.00;99.90
10459;DHT22;5277;48.722;8.736;2023-04-24T04:55:57;10.00;99.90
10459;DHT22;5277;48.722;8.736;2023-04-24T04:58:23;10.00;99.90
10459;DHT22;5277;48.722;8.736;2023-04-24T05:00:48;10.00;99.90
10459;DHT22;5277;48.722;8.736;2023-04-24T05:03:14;9.90;99.90
10459;DHT22;5277;48.722;8.736;2023-04-24T05:05:40;9.70;99.90
10459;DHT22;5277;48.722;8.736;2023-04-24T05:08:07;9.80;99.90
10459;DHT22;5277;48.722;8.736;2023-04-24T05:10:33;9.70;99.90
10459;DHT22;5277;48.722;8.736;2023-04-24T05:12:58;9.70;99.90
10459;DHT22;5277;48.722;8.736;2023-04-24T05:15:24;9.70;99.90
10459;DHT22;5277;48.722;8.736;2023-04-24T05:17:50;9.70;99.90
10459;DHT22;5277;48.722;8.736;2023-04-24T05:20:15;9.70;99.90
10459;DHT22;5277;48.722;8.736;2023-04-24T05:22:42;9.80;99.90
10459;DHT22;5277;48.722;8.736;2023-04-24T05:25:07;9.80;99.90
10459;DHT22;5277;48.722;8.736;2023-04-24T05:27:33;9.80;99.90
10459;DHT22;5277;48.722;8.736;2023-04-24T05:29:59;9.80;99.90
10459;DHT22;5277;48.722;8.736;2023-04-24T05:32:25;9.90;99.90
10459;DHT22;5277;48.722;8.736;2023-04-24T05:34:52;9.90;99.90
10459;DHT22;5277;48.722;8.736;2023-04-24T05:37:17;9.90;99.90
10459;DHT22;5277;48.722;8.736;2023-04-24T05:39:43;10.00;99.90
10459;DHT22;5277;48.722;8.736;2023-04-24T05:42:09;10.10;99.90
10459;DHT22;5277;48.722;8.736;2023-04-24T05:44:34;10.10;99.90
10459;DHT22;5277;48.722;8.736;2023-04-24T05:47:00;10.00;99.90
10459;DHT22;5277;48.722;8.736;2023-04-24T05:49:27;10.00;99.90
10459;DHT22;5277;48.722;8.736;2023-04-24T05:51:52;10.10;99.90
10459;DHT22;5277;48.722;8.736;2023-04-24T05:54:18;10.10;99.90
10459;DHT22;5277;48.722;8.736;2023-04-24T05:56:44;10.10;99.90
10459;DHT22;5277;48.722;8.736;2023-04-24T05:59:09;10.10;99.90
10459;DHT22;5277;48.722;8.736;2023-04-24T06:01:35;10.20;99.90
10459;DHT22;5277;48.722;8.736;2023-04-24T06:04:02;10.20;99.90
10459;DHT22;5277;48.722;8.736;2023-04-24T06:06:28;10.30;99.90
10459;DHT22;5277;48.722;8.736;2023-04-24T06:08:54;10.40;99.90
10459;DHT22;5277;48.722;8.736;2023-04-24T06:11:20;10.60;99.90
10459;DHT22;5277;48.722;8.736;2023-04-24T06:13:45;10.70;99.90
10459;DHT22;5277;48.722;8.736;2023-04-24T06:16:11;10.80;99.90
10459;DHT22;5277;48.722;8.736;2023-04-24T06:18:36;11.00;99.90
10459;DHT22;5277;48.722;8.736;2023-04-24T06:21:02;11.30;99.90
10459;DHT22;5277;48.722;8.736;2023-04-24T06:23:28;11.60;99.90
10459;DHT22;5277;48.722;8.736;2023-04-24T06:25:54;11.70;99.90
10459;DHT22;5277;48.722;8.736;2023-04-24T06:28:20;11.70;99.90
10459;DHT22;5277;48.722;8.736;2023-04-24T06:30:45;11.90;99.90
10459;DHT22;5277;48.722;8.736;2023-04-24T06:33:11;11.90;99.90
10459;DHT22;5277;48.722;8.736;2023-04-24T06:35:37;12.10;99.90
10459;DHT22;5277;48.722;8.736;2023-04-24T06:38:03;12.10;99.90
10459;DHT22;5277;48.722;8.736;2023-04-24T06:40:29;12.20;99.90
10459;DHT22;5277;48.722;8.736;2023-04-24T06:42:55;12.20;99.90
10459;DHT22;5277;48.722;8.736;2023-04-24T06:45:21;12.20;99.90
10459;DHT22;5277;48.722;8.736;2023-04-24T06:47:46;12.40;99.90
10459;DHT22;5277;48.722;8.736;2023-04-24T06:50:12;12.50;99.90
10459;DHT22;5277;48.722;8.736;2023-04-24T06:52:38;12.70;99.90
10459;DHT22;5277;48.722;8.736;2023-04-24T06:55:04;12.60;99.90
10459;DHT22;5277;48.722;8.736;2023-04-24T06:57:30;12.60;99.90
10459;DHT22;5277;48.722;8.736;2023-04-24T06:59:56;12.30;99.90
10459;DHT22;5277;48.722;8.736;2023-04-24T07:02:22;12.30;99.90
10459;DHT22;5277;48.722;8.736;2023-04-24T07:04:48;12.30;99.90
10459;DHT22;5277;48.722;8.736;2023-04-24T07:07:13;12.40;99.90
10459;DHT22;5277;48.722;8.736;2023-04-24T07:09:42;12.30;99.90
10459;DHT22;5277;48.722;8.736;2023-04-24T07:12:08;12.20;99.90
10459;DHT22;5277;48.722;8.736;2023-04-24T07:14:36;12.20;99.90
10459;DHT22;5277;48.722;8.736;2023-04-24T07:17:05;12.30;99.90
10459;DHT22;5277;48.722;8.736;2023-04-24T07:19:33;12.30;99.90
10459;DHT22;5277;48.722;8.736;2023-04-24T07:21:58;12.40;99.90
10459;DHT22;5277;48.722;8.736;2023-04-24T07:24:25;12.30;99.60
10459;DHT22;5277;48.722;8.736;2023-04-24T07:39:45;12.80;98.50
10459;DHT22;5277;48.722;8.736;2023-04-24T07:42:11;12.80;99.70
10459;DHT22;5277;48.722;8.736;2023-04-24T07:44:37;12.90;98.90
10459;DHT22;5277;48.722;8.736;2023-04-24T07:47:02;13.00;98.10
10459;DHT22;5277;48.722;8.736;2023-04-24T07:49:28;13.10;97.60
10459;DHT22;5277;48.722;8.736;2023-04-24T07:51:54;13.30;97.80
10459;DHT22;5277;48.722;8.736;2023-04-24T07:54:19;13.30;97.20
10459;DHT22;5277;48.722;8.736;2023-04-24T07:56:45;13.40;97.90
10459;DHT22;5277;48.722;8.736;2023-04-24T07:59:11;13.60;98.10
10459;DHT22;5277;48.722;8.736;2023-04-24T08:01:37;13.70;97.30
10459;DHT22;5277;48.722;8.736;2023-04-24T08:04:02;13.90;97.10
10459;DHT22;5277;48.722;8.736;2023-04-24T08:06:29;14.00;96.00
10459;DHT22;5277;48.722;8.736;2023-04-24T08:08:56;14.20;95.30
10459;DHT22;5277;48.722;8.736;2023-04-24T08:11:22;14.20;95.10
10459;DHT22;5277;48.722;8.736;2023-04-24T08:13:47;14.10;95.10
10459;DHT22;5277;48.722;8.736;2023-04-24T08:16:13;14.20;94.30
10459;DHT22;5277;48.722;8.736;2023-04-24T08:18:38;14.00;94.80
10459;DHT22;5277;48.722;8.736;2023-04-24T08:21:04;14.00;94.60
10459;DHT22;5277;48.722;8.736;2023-04-24T08:23:30;13.90;94.90
10459;DHT22;5277;48.722;8.736;2023-04-24T08:25:56;14.00;94.50
10459;DHT22;5277;48.722;8.736;2023-04-24T08:28:22;13.80;94.70
10459;DHT22;5277;48.722;8.736;2023-04-24T08:30:48;13.90;95.00
10459;DHT22;5277;48.722;8.736;2023-04-24T08:33:14;14.00;94.80
10459;DHT22;5277;48.722;8.736;2023-04-24T08:35:40;13.90;94.10
10459;DHT22;5277;48.722;8.736;2023-04-24T08:38:06;13.70;94.50
10459;DHT22;5277;48.722;8.736;2023-04-24T08:40:34;13.60;95.30
10459;DHT22;5277;48.722;8.736;2023-04-24T08:43:00;13.50;95.70
10459;DHT22;5277;48.722;8.736;2023-04-24T08:45:26;13.40;95.20
10459;DHT22;5277;48.722;8.736;2023-04-24T08:47:52;13.40;95.80
10459;DHT22;5277;48.722;8.736;2023-04-24T08:50:19;13.50;96.00
10459;DHT22;5277;48.722;8.736;2023-04-24T08:52:45;13.60;96.60
10459;DHT22;5277;48.722;8.736;2023-04-24T08:55:11;13.70;97.40
10459;DHT22;5277;48.722;8.736;2023-04-24T08:57:36;13.60;96.70
10459;DHT22;5277;48.722;8.736;2023-04-24T09:00:05;13.50;96.90
10459;DHT22;5277;48.722;8.736;2023-04-24T09:02:31;13.40;97.10
10459;DHT22;5277;48.722;8.736;2023-04-24T09:04:59;13.30;96.40
10459;DHT22;5277;48.722;8.736;2023-04-24T09:07:27;13.40;96.70
10459;DHT22;5277;48.722;8.736;2023-04-24T09:09:56;13.50;96.20
10459;DHT22;5277;48.722;8.736;2023-04-24T09:12:22;13.80;95.10
10459;DHT22;5277;48.722;8.736;2023-04-24T09:14:48;13.90;95.40
10459;DHT22;5277;48.722;8.736;2023-04-24T09:17:15;14.30;95.30
10459;DHT22;5277;48.722;8.736;2023-04-24T09:19:41;14.40;92.90
10459;DHT22;5277;48.722;8.736;2023-04-24T09:22:07;14.70;92.50
10459;DHT22;5277;48.722;8.736;2023-04-24T09:24:34;14.50;91.80
10459;DHT22;5277;48.722;8.736;2023-04-24T09:27:01;14.60;92.30
10459;DHT22;5277;48.722;8.736;2023-04-24T09:29:27;14.80;91.90
10459;DHT22;5277;48.722;8.736;2023-04-24T09:31:53;15.10;90.40
10459;DHT22;5277;48.722;8.736;2023-04-24T09:34:25;15.00;89.80
10459;DHT22;5277;48.722;8.736;2023-04-24T09:36:51;14.80;90.50
10459;DHT22;5277;48.722;8.736;2023-04-24T09:39:18;14.60;90.80
10459;DHT22;5277;48.722;8.736;2023-04-24T09:41:51;14.80;90.70
10459;DHT22;5277;48.722;8.736;2023-04-24T09:44:19;15.30;90.00
10459;DHT22;5277;48.722;8.736;2023-04-24T09:46:51;15.90;89.80
10459;DHT22;5277;48.722;8.736;2023-04-24T09:49:25;16.10;87.70
10459;DHT22;5277;48.722;8.736;2023-04-24T09:51:52;16.40;86.10
10459;DHT22;5277;48.722;8.736;2023-04-24T09:54:19;16.80;83.90
10459;DHT22;5277;48.722;8.736;2023-04-24T09:56:47;17.00;82.20
10459;DHT22;5277;48.722;8.736;2023-04-24T09:59:18;17.10;81.70
10459;DHT22;5277;48.722;8.736;2023-04-24T10:01:44;17.60;81.30
10459;DHT22;5277;48.722;8.736;2023-04-24T10:04:27;18.30;77.20
10459;DHT22;5277;48.722;8.736;2023-04-24T10:06:55;18.90;76.70
10459;DHT22;5277;48.722;8.736;2023-04-24T10:09:22;19.00;74.10
10459;DHT22;5277;48.722;8.736;2023-04-24T10:11:53;19.10;71.20
10459;DHT22;5277;48.722;8.736;2023-04-24T10:14:25;18.90;69.20
10459;DHT22;5277;48.722;8.736;2023-04-24T10:16:53;19.10;68.90
10459;DHT22;5277;48.722;8.736;2023-04-24T10:19:19;18.80;69.10
10459;DHT22;5277;48.722;8.736;2023-04-24T10:21:45;19.00;69.20
10459;DHT22;5277;48.722;8.736;2023-04-24T10:24:17;19.30;66.80
10459;DHT22;5277;48.722;8.736;2023-04-24T10:26:44;19.20;65.30
10459;DHT22;5277;48.722;8.736;2023-04-24T10:29:11;18.80;67.10
10459;DHT22;5277;48.722;8.736;2023-04-24T10:31:38;18.70;67.80
10459;DHT22;5277;48.722;8.736;2023-04-24T10:34:09;18.00;65.60
10459;DHT22;5277;48.722;8.736;2023-04-24T10:36:36;17.20;66.90
10459;DHT22;5277;48.722;8.736;2023-04-24T10:39:05;16.60;68.30
10459;DHT22;5277;48.722;8.736;2023-04-24T10:41:33;16.50;69.90
10459;DHT22;5277;48.722;8.736;2023-04-24T10:44:13;16.10;71.30
10459;DHT22;5277;48.722;8.736;2023-04-24T10:46:43;15.70;71.80
10459;DHT22;5277;48.722;8.736;2023-04-24T10:49:09;15.30;75.80
10459;DHT22;5277;48.722;8.736;2023-04-24T10:51:51;15.00;75.00
10459;DHT22;5277;48.722;8.736;2023-04-24T10:56:55;14.70;77.20
10459;DHT22;5277;48.722;8.736;2023-04-24T10:59:38;14.80;79.20
10459;DHT22;5277;48.722;8.736;2023-04-24T11:02:07;15.10;78.20
10459;DHT22;5277;48.722;8.736;2023-04-24T11:04:34;14.90;78.40
10459;DHT22;5277;48.722;8.736;2023-04-24T11:07:02;14.60;80.40
10459;DHT22;5277;48.722;8.736;2023-04-24T11:09:30;14.30;82.00
10459;DHT22;5277;48.722;8.736;2023-04-24T11:12:07;14.10;79.90
10459;DHT22;5277;48.722;8.736;2023-04-24T11:15:00;13.80;81.20
10459;DHT22;5277;48.722;8.736;2023-04-24T11:17:34;13.60;82.90
10459;DHT22;5277;48.722;8.736;2023-04-24T11:20:07;13.50;83.10
10459;DHT22;5277;48.722;8.736;2023-04-24T11:22:35;13.90;84.50
10459;DHT22;5277;48.722;8.736;2023-04-24T11:25:05;15.00;82.10
10459;DHT22;5277;48.722;8.736;2023-04-24T11:27:39;16.20;78.90
10459;DHT22;5277;48.722;8.736;2023-04-24T11:30:06;16.80;75.10
10459;DHT22;5277;48.722;8.736;2023-04-24T11:37:42;17.10;71.20
10459;DHT22;5277;48.722;8.736;2023-04-24T11:40:10;16.50;73.30
10459;DHT22;5277;48.722;8.736;2023-04-24T11:42:39;15.80;75.00
10459;DHT22;5277;48.722;8.736;2023-04-24T11:45:08;15.10;75.40
10459;DHT22;5277;48.722;8.736;2023-04-24T11:47:35;14.80;79.00
10459;DHT22;5277;48.722;8.736;2023-04-24T11:50:01;14.20;78.60
10459;DHT22;5277;48.722;8.736;2023-04-24T11:52:28;14.20;79.20
10459;DHT22;5277;48.722;8.736;2023-04-24T11:54:54;13.90;79.80
10459;DHT22;5277;48.722;8.736;2023-04-24T11:57:20;13.80;79.90
10459;DHT22;5277;48.722;8.736;2023-04-24T11:59:47;13.80;80.90
10459;DHT22;5277;48.722;8.736;2023-04-24T12:02:25;13.90;80.70
10459;DHT22;5277;48.722;8.736;2023-04-24T12:04:53;13.80;80.40
10459;DHT22;5277;48.722;8.736;2023-04-24T12:07:19;13.50;80.80
10459;DHT22;5277;48.722;8.736;2023-04-24T12:09:46;13.50;81.60
10459;DHT22;5277;48.722;8.736;2023-04-24T12:12:14;13.50;81.90
10459;DHT22;5277;48.722;8.736;2023-04-24T12:14:50;13.50;82.70
10459;DHT22;5277;48.722;8.736;2023-04-24T12:17:16;13.60;83.60
10459;DHT22;5277;48.722;8.736;2023-04-24T12:19:48;13.80;83.10
10459;DHT22;5277;48.722;8.736;2023-04-24T12:22:14;13.80;83.90
10459;DHT22;5277;48.722;8.736;2023-04-24T12:27:22;13.90;83.10
10459;DHT22;5277;48.722;8.736;2023-04-24T12:29:52;13.80;84.00
10459;DHT22;5277;48.722;8.736;2023-04-24T12:32:21;13.60;84.10
10459;DHT22;5277;48.722;8.736;2023-04-24T12:34:47;13.70;87.40
10459;DHT22;5277;48.722;8.736;2023-04-24T12:37:14;13.50;89.90
10459;DHT22;5277;48.722;8.736;2023-04-24T12:40:06;13.30;90.30
10459;DHT22;5277;48.722;8.736;2023-04-24T12:42:33;13.30;89.60
10459;DHT22;5277;48.722;8.736;2023-04-24T12:45:01;13.10;88.20
10459;DHT22;5277;48.722;8.736;2023-04-24T12:47:27;13.00;88.00
10459;DHT22;5277;48.722;8.736;2023-04-24T12:49:53;13.10;88.40
10459;DHT22;5277;48.722;8.736;2023-04-24T12:52:21;13.00;86.80
10459;DHT22;5277;48.722;8.736;2023-04-24T12:54:47;12.90;87.50
10459;DHT22;5277;48.722;8.736;2023-04-24T12:57:13;13.00;88.20
10459;DHT22;5277;48.722;8.736;2023-04-24T12:59:39;13.10;88.70
10459;DHT22;5277;48.722;8.736;2023-04-24T13:02:05;13.00;88.40
10459;DHT22;5277;48.722;8.736;2023-04-24T13:04:31;12.90;90.00
10459;DHT22;5277;48.722;8.736;2023-04-24T13:07:00;12.90;90.80
10459;DHT22;5277;48.722;8.736;2023-04-24T13:09:26;12.80;91.70
10459;DHT22;5277;48.722;8.736;2023-04-24T13:11:52;12.80;92.30
10459;DHT22;5277;48.722;8.736;2023-04-24T13:14:18;12.80;92.60
10459;DHT22;5277;48.722;8.736;2023-04-24T13:16:43;12.80;93.60
10459;DHT22;5277;48.722;8.736;2023-04-24T13:19:09;12.70;94.00
10459;DHT22;5277;48.722;8.736;2023-04-24T13:21:34;12.70;94.80
10459;DHT22;5277;48.722;8.736;2023-04-24T13:24:00;12.80;95.30
10459;DHT22;5277;48.722;8.736;2023-04-24T13:26:26;12.90;95.60
10459;DHT22;5277;48.722;8.736;2023-04-24T13:28:52;12.90;95.40
10459;DHT22;5277;48.722;8.736;2023-04-24T13:31:18;13.10;94.70
10459;DHT22;5277;48.722;8.736;2023-04-24T13:33:43;13.20;95.20
10459;DHT22;5277;48.722;8.736;2023-04-24T13:36:09;13.30;95.10
10459;DHT22;5277;48.722;8.736;2023-04-24T13:38:35;13.10;94.60
10459;DHT22;5277;48.722;8.736;2023-04-24T13:41:00;13.00;95.90
10459;DHT22;5277;48.722;8.736;2023-04-24T13:43:26;13.00;96.20
10459;DHT22;5277;48.722;8.736;2023-04-24T13:45:52;12.70;97.00
10459;DHT22;5277;48.722;8.736;2023-04-24T13:48:18;12.60;96.50
10459;DHT22;5277;48.722;8.736;2023-04-24T13:50:43;12.30;97.80
10459;DHT22;5277;48.722;8.736;2023-04-24T13:53:10;12.40;98.90
10459;DHT22;5277;48.722;8.736;2023-04-24T13:55:36;12.40;99.40
10459;DHT22;5277;48.722;8.736;2023-04-24T13:58:02;12.50;96.70
10459;DHT22;5277;48.722;8.736;2023-04-24T14:00:28;12.50;98.50
10459;DHT22;5277;48.722;8.736;2023-04-24T14:02:53;12.50;99.00
10459;DHT22;5277;48.722;8.736;2023-04-24T14:05:19;12.50;99.00
10459;DHT22;5277;48.722;8.736;2023-04-24T14:07:46;12.40;99.20
10459;DHT22;5277;48.722;8.736;2023-04-24T14:10:11;12.40;99.40
10459;DHT22;5277;48.722;8.736;2023-04-24T14:12:37;12.50;99.50
10459;DHT22;5277;48.722;8.736;2023-04-24T14:15:04;12.60;99.70
10459;DHT22;5277;48.722;8.736;2023-04-24T14:17:30;12.70;99.90
10459;DHT22;5277;48.722;8.736;2023-04-24T14:19:56;12.70;98.70
10459;DHT22;5277;48.722;8.736;2023-04-24T14:22:22;12.60;98.40
10459;DHT22;5277;48.722;8.736;2023-04-24T14:24:48;12.70;98.10
10459;DHT22;5277;48.722;8.736;2023-04-24T14:27:13;12.70;97.00
10459;DHT22;5277;48.722;8.736;2023-04-24T14:29:39;12.70;96.80
10459;DHT22;5277;48.722;8.736;2023-04-24T14:32:05;12.60;96.30
10459;DHT22;5277;48.722;8.736;2023-04-24T14:34:30;12.60;97.00
10459;DHT22;5277;48.722;8.736;2023-04-24T14:36:56;12.70;97.10
10459;DHT22;5277;48.722;8.736;2023-04-24T14:39:21;12.60;97.20
10459;DHT22;5277;48.722;8.736;2023-04-24T14:41:47;12.70;96.60
10459;DHT22;5277;48.722;8.736;2023-04-24T14:44:13;12.70;96.10
10459;DHT22;5277;48.722;8.736;2023-04-24T14:46:38;12.70;96.30
10459;DHT22;5277;48.722;8.736;2023-04-24T14:49:04;12.90;96.20
10459;DHT22;5277;48.722;8.736;2023-04-24T14:51:30;13.00;95.30
10459;DHT22;5277;48.722;8.736;2023-04-24T14:53:57;13.00;96.00
10459;DHT22;5277;48.722;8.736;2023-04-24T14:56:23;13.00;95.50
10459;DHT22;5277;48.722;8.736;2023-04-24T14:58:49;12.80;95.70
10459;DHT22;5277;48.722;8.736;2023-04-24T15:01:15;12.90;96.30
10459;DHT22;5277;48.722;8.736;2023-04-24T15:03:40;12.90;96.10
10459;DHT22;5277;48.722;8.736;2023-04-24T15:06:06;13.00;95.60
10459;DHT22;5277;48.722;8.736;2023-04-24T15:08:32;12.90;95.60
10459;DHT22;5277;48.722;8.736;2023-04-24T15:10:58;12.90;95.60
10459;DHT22;5277;48.722;8.736;2023-04-24T15:13:23;12.80;95.60
10459;DHT22;5277;48.722;8.736;2023-04-24T15:15:49;12.70;95.90
10459;DHT22;5277;48.722;8.736;2023-04-24T15:18:15;12.80;95.60
10459;DHT22;5277;48.722;8.736;2023-04-24T15:20:40;12.70;95.60
10459;DHT22;5277;48.722;8.736;2023-04-24T15:23:08;12.70;95.70
10459;DHT22;5277;48.722;8.736;2023-04-24T15:25:34;12.80;96.10
10459;DHT22;5277;48.722;8.736;2023-04-24T15:28:00;12.70;96.40
10459;DHT22;5277;48.722;8.736;2023-04-24T15:30:26;12.70;96.30
10459;DHT22;5277;48.722;8.736;2023-04-24T15:32:52;12.70;95.90
10459;DHT22;5277;48.722;8.736;2023-04-24T15:35:17;12.80;96.40
10459;DHT22;5277;48.722;8.736;2023-04-24T15:37:43;12.70;97.10
10459;DHT22;5277;48.722;8.736;2023-04-24T15:40:10;12.80;96.60
10459;DHT22;5277;48.722;8.736;2023-04-24T15:42:39;12.80;94.80
10459;DHT22;5277;48.722;8.736;2023-04-24T15:45:05;12.70;95.00
10459;DHT22;5277;48.722;8.736;2023-04-24T15:47:32;12.70;95.60
10459;DHT22;5277;48.722;8.736;2023-04-24T15:49:58;12.70;95.20
10459;DHT22;5277;48.722;8.736;2023-04-24T15:52:23;12.70;96.10
10459;DHT22;5277;48.722;8.736;2023-04-24T15:54:49;12.60;96.50
10459;DHT22;5277;48.722;8.736;2023-04-24T15:57:15;12.60;95.80
10459;DHT22;5277;48.722;8.736;2023-04-24T15:59:40;12.70;96.50
10459;DHT22;5277;48.722;8.736;2023-04-24T16:02:08;12.80;95.50
10459;DHT22;5277;48.722;8.736;2023-04-24T16:04:34;12.80;94.70
10459;DHT22;5277;48.722;8.736;2023-04-24T16:07:00;12.90;93.50